KPBF/PBF METAR and TAF weather

Enter ICAO airport designator
Station Type Date Time Source
KPBF METAR 2021/04/13 20:53 UTC NOAA

KPBF 132053Z AUTO 36010KT 10SM CLR 24/11 A3002 RMK AO2 SLP164 T02440111 56013


Station Type Date Time Source
KPBF Decoded METAR 2021/04/13 20:53 UTC NOAA

PINE BLUFF GRIDER FIELD, AR, United States (KPBF) 34-11N 091-56W 62M
Apr 13, 2021 - 04:53 PM EDT / 2021.04.13 2053 UTC
Wind: from the N (360 degrees) at 12 MPH (10 KT):0
Visibility: 10 mile(s):0
Sky conditions: clear
Temperature: 75.9 F (24.4 C)
Dew Point: 52.0 F (11.1 C)
Relative Humidity: 43%
Pressure (altimeter): 30.02 in. Hg (1016 hPa)
Pressure tendency: 0.04 inches (1.3 hPa) lower than three hours ago
ob: KPBF 132053Z AUTO 36010KT 10SM CLR 24/11 A3002 RMK AO2 SLP164 T02440111 56013
cycle: 21

Station Type Date Time Source
KPBF TAF 2021/04/13 18:28 UTC NOAA

TAF KPBF 131726Z 1318/1418 03011G20KT P6SM FEW100
FM140000 02006KT P6SM SCT050
FM141200 02009KT 6SM -SHRA BR VCTS OVC030CB
TEMPO 1414/1418 -TSRA OVC020CB

Example: see airport list